Time;durP1;ratioP1;P1;durP2;ratioP2;P2;SDS_P1;SDS_P2;PMS_P1;PMS_P2;Temp;Humidity;BMP_temperature;BMP_pressure;BME280_temperature;BME280_humidity;BME280_pressure;Samples;Min_cycle;Max_cycle;Signal;HPM_P1;HPM_P2
2024/01/22 00:01:49;;;;;;;10.33;9.37;;;;;;;22.42;22.92;96739.56;6220367;28;109110;-60
2024/01/22 00:04:52;;;;;;;10.80;9.90;;;;;;;22.41;22.78;96739.84;6230854;28;111363;-60
2024/01/22 00:07:55;;;;;;;10.20;9.30;;;;;;;22.40;22.77;96735.59;6222721;28;109284;-60
2024/01/22 00:10:58;;;;;;;10.90;10.00;;;;;;;22.42;22.85;96744.13;6215066;27;109184;-60
2024/01/22 00:14:02;;;;;;;10.30;9.40;;;;;;;22.42;23.13;96738.78;6210774;28;109974;-61
2024/01/22 00:17:06;;;;;;;11.07;10.07;;;;;;;22.41;22.95;96739.84;6231770;27;109280;-61
2024/01/22 00:20:10;;;;;;;11.83;10.73;;;;;;;22.39;22.83;96741.97;6217030;27;109231;-60
2024/01/22 00:23:13;;;;;;;10.77;9.77;;;;;;;22.39;23.27;96745.44;6215034;28;109220;-60
2024/01/22 00:26:16;;;;;;;10.87;9.83;;;;;;;22.39;22.62;96745.44;6212580;28;111147;-60
2024/01/22 00:29:19;;;;;;;11.03;10.03;;;;;;;22.39;23.03;96750.78;6222665;28;109025;-61
2024/01/22 00:32:23;;;;;;;11.40;10.40;;;;;;;22.41;22.68;96745.19;6232740;27;109056;-61
2024/01/22 00:35:27;;;;;;;11.87;10.70;;;;;;;22.41;22.59;96745.19;6209693;28;109022;-59
2024/01/22 00:38:30;;;;;;;11.73;10.63;;;;;;;22.40;22.69;96746.25;6212656;28;109217;-60
2024/01/22 00:41:33;;;;;;;11.23;10.23;;;;;;;22.43;23.17;96756.38;6235314;28;110104;-60
2024/01/22 00:44:39;;;;;;;10.73;9.83;;;;;;;22.42;22.41;96757.44;6234052;27;109202;-60
2024/01/22 00:47:44;;;;;;;11.70;10.60;;;;;;;22.40;22.94;96749.72;6223518;27;109996;-60
2024/01/22 00:50:47;;;;;;;11.10;10.20;;;;;;;22.41;22.90;96743.31;6213318;27;109189;-60
2024/01/22 00:53:50;;;;;;;11.23;10.13;;;;;;;22.41;22.98;96737.97;6212202;28;109044;-60
2024/01/22 00:56:55;;;;;;;10.87;9.97;;;;;;;22.41;22.88;96737.19;6210165;28;109321;-60
2024/01/22 00:59:58;;;;;;;10.67;9.67;;;;;;;22.40;22.32;96733.72;6201468;27;109104;-61
2024/01/22 01:03:03;;;;;;;10.80;9.80;;;;;;;22.41;22.28;96737.19;6231968;28;109093;-60
2024/01/22 01:06:06;;;;;;;10.97;9.90;;;;;;;22.39;22.46;96733.97;6211548;28;109247;-60
2024/01/22 01:09:09;;;;;;;12.50;11.40;;;;;;;22.38;22.82;96732.38;6213880;28;109120;-60
2024/01/22 01:12:13;;;;;;;11.20;10.20;;;;;;;22.39;22.17;96731.31;6213613;27;109286;-60
2024/01/22 01:15:16;;;;;;;11.47;10.47;;;;;;;22.40;22.49;96730.25;6228214;28;110060;-60
2024/01/22 01:18:21;;;;;;;11.90;10.80;;;;;;;22.38;22.56;96730.50;6233625;27;109132;-60
2024/01/22 01:21:24;;;;;;;11.67;10.63;;;;;;;22.40;22.17;96724.91;6222318;27;109887;-60
2024/01/22 01:24:27;;;;;;;10.90;9.90;;;;;;;22.41;22.71;96723.84;6232959;28;110040;-60
2024/01/22 01:27:30;;;;;;;11.53;10.43;;;;;;;22.40;22.63;96723.03;6234825;27;108801;-59
2024/01/22 01:30:34;;;;;;;11.57;10.47;;;;;;;22.40;22.34;96725.72;6229111;27;109013;-60
2024/01/22 01:33:38;;;;;;;11.00;10.00;;;;;;;22.40;22.10;96730.25;6203357;28;110065;-60
2024/01/22 01:36:41;;;;;;;11.20;10.20;;;;;;;22.40;22.49;96724.91;6224926;27;109305;-60
2024/01/22 01:39:44;;;;;;;11.17;10.17;;;;;;;22.38;22.44;96724.38;6227228;28;108992;-60
2024/01/22 01:42:48;;;;;;;10.73;9.77;;;;;;;22.39;22.40;96712.66;6210268;27;110282;-60
2024/01/22 01:45:51;;;;;;;11.10;10.10;;;;;;;22.41;22.50;96715.84;6229440;28;109029;-60
2024/01/22 01:48:56;;;;;;;10.63;9.73;;;;;;;22.41;22.03;96715.84;6236238;27;109094;-60
2024/01/22 01:51:59;;;;;;;11.07;10.07;;;;;;;22.41;22.17;96711.31;6235881;27;109023;-60
2024/01/22 01:55:03;;;;;;;10.77;9.77;;;;;;;22.40;22.07;96711.56;6217223;28;109088;-60
2024/01/22 01:58:06;;;;;;;10.30;9.40;;;;;;;22.39;22.23;96720.66;6229664;27;110664;-60
2024/01/22 02:01:09;;;;;;;10.40;9.50;;;;;;;22.38;22.57;96709.19;6234768;28;109112;-60
2024/01/22 02:04:14;;;;;;;10.50;9.60;;;;;;;22.40;21.97;96709.72;6230867;27;109282;-60
2024/01/22 02:07:17;;;;;;;11.07;10.07;;;;;;;22.39;22.51;96712.66;6203185;28;109532;-60
2024/01/22 02:10:20;;;;;;;11.33;10.33;;;;;;;22.42;22.41;96710.25;6234763;28;109387;-61
2024/01/22 02:13:25;;;;;;;10.67;9.67;;;;;;;22.40;22.47;96708.91;6225508;27;109601;-59
2024/01/22 02:16:28;;;;;;;10.13;9.23;;;;;;;22.40;22.49;96707.03;6237700;28;109288;-60
2024/01/22 02:19:33;;;;;;;11.03;10.10;;;;;;;22.43;22.26;96713.69;6217516;27;109099;-59
2024/01/22 02:22:36;;;;;;;11.60;10.60;;;;;;;22.42;22.10;96712.09;6235821;27;108907;-59
2024/01/22 02:25:40;;;;;;;10.57;9.57;;;;;;;22.42;22.25;96709.44;6237878;27;110156;-58
2024/01/22 02:28:43;;;;;;;10.20;9.30;;;;;;;22.39;22.04;96704.63;6221612;27;110285;-59
2024/01/22 02:31:48;;;;;;;11.03;10.10;;;;;;;22.40;22.43;96715.03;6234745;27;110482;-60
2024/01/22 02:34:51;;;;;;;10.33;9.50;;;;;;;22.40;22.40;96707.03;6237210;27;109174;-59
2024/01/22 02:37:55;;;;;;;10.10;9.20;;;;;;;22.38;22.32;96695.03;6215665;27;109433;-59
2024/01/22 02:40:59;;;;;;;10.40;9.50;;;;;;;22.40;22.22;96698.25;6220034;28;110681;-60
2024/01/22 02:44:03;;;;;;;10.00;9.00;;;;;;;22.38;22.44;96706.50;6237928;28;111510;-60
2024/01/22 02:47:06;;;;;;;10.10;9.30;;;;;;;22.41;22.38;96707.84;6227046;27;110072;-60
2024/01/22 02:50:09;;;;;;;10.60;9.70;;;;;;;22.38;22.31;96695.84;6225377;28;109103;-60
2024/01/22 02:53:12;;;;;;;9.80;8.90;;;;;;;22.38;21.82;96703.84;6215734;28;110130;-60
2024/01/22 02:56:19;;;;;;;9.67;8.80;;;;;;;22.35;21.96;96696.38;6237465;27;111483;-58
2024/01/22 02:59:22;;;;;;;10.00;9.10;;;;;;;22.36;22.11;96691.84;6236800;27;109230;-58
2024/01/22 03:02:26;;;;;;;10.50;9.53;;;;;;;22.35;21.74;96696.38;6230944;27;109006;-59
2024/01/22 03:05:29;;;;;;;10.07;9.00;;;;;;;22.36;22.06;96697.97;6229475;27;109879;-59
2024/01/22 03:08:32;;;;;;;9.70;8.80;;;;;;;22.38;22.13;96692.38;6212214;28;109105;-57
2024/01/22 03:11:37;;;;;;;9.57;8.67;;;;;;;22.39;21.58;96693.97;6219730;27;109712;-58
2024/01/22 03:14:40;;;;;;;8.83;8.03;;;;;;;22.40;22.06;96691.03;6207359;28;109211;-58
2024/01/22 03:17:43;;;;;;;9.70;8.90;;;;;;;22.37;21.82;96688.09;6219927;27;109052;-57
2024/01/22 03:20:46;;;;;;;8.80;8.00;;;;;;;22.39;21.92;96701.97;6227885;28;110272;-58
2024/01/22 03:23:49;;;;;;;9.87;8.97;;;;;;;22.41;21.76;96707.84;6212738;28;108910;-58
2024/01/22 03:26:54;;;;;;;9.27;8.47;;;;;;;22.37;21.78;96707.56;6224174;28;109381;-57
2024/01/22 03:29:57;;;;;;;9.83;8.93;;;;;;;22.39;22.07;96708.09;6234351;27;109345;-57
2024/01/22 03:33:00;;;;;;;9.30;8.50;;;;;;;22.40;22.03;96717.72;6212807;27;109738;-57
2024/01/22 03:36:03;;;;;;;10.57;9.60;;;;;;;22.39;22.12;96713.44;6227513;28;109160;-57
2024/01/22 03:39:06;;;;;;;9.30;8.50;;;;;;;22.40;21.89;96708.91;6226054;27;110271;-58
2024/01/22 03:42:14;;;;;;;9.00;8.20;;;;;;;22.39;21.90;96713.44;6215544;27;109035;-57
2024/01/22 03:45:17;;;;;;;9.53;8.73;;;;;;;22.41;21.70;96715.84;6221236;28;109137;-58
2024/01/22 03:48:20;;;;;;;8.70;7.90;;;;;;;22.42;21.92;96714.78;6227084;27;109093;-60
2024/01/22 03:51:23;;;;;;;8.53;7.73;;;;;;;22.40;21.84;96716.91;6221572;27;108984;-58
2024/01/22 03:54:26;;;;;;;8.33;7.63;;;;;;;22.40;21.83;96708.91;6215680;28;109253;-58
2024/01/22 03:57:31;;;;;;;8.40;7.70;;;;;;;22.39;21.97;96715.31;6232996;27;109098;-58
2024/01/22 04:00:34;;;;;;;8.43;7.73;;;;;;;22.39;21.39;96717.97;6210846;28;109263;-58
2024/01/22 04:03:37;;;;;;;8.53;7.83;;;;;;;22.39;21.93;96724.13;6235936;27;109058;-58
2024/01/22 04:06:40;;;;;;;8.03;7.33;;;;;;;22.38;21.51;96719.03;6221807;27;109021;-59
2024/01/22 04:09:43;;;;;;;8.00;7.20;;;;;;;22.37;21.89;96717.44;6219512;27;108982;-58
2024/01/22 04:12:49;;;;;;;8.33;7.63;;;;;;;22.36;21.45;96723.84;6223541;27;109746;-58
2024/01/22 04:15:54;;;;;;;8.40;7.60;;;;;;;22.36;21.31;96721.19;6222804;27;110051;-58
2024/01/22 04:18:57;;;;;;;8.53;7.83;;;;;;;22.33;21.89;96714.50;6217865;28;110059;-58
2024/01/22 04:22:00;;;;;;;18.73;17.27;;;;;;;22.07;22.47;96711.00;6223223;27;109207;-59
2024/01/22 04:25:03;;;;;;;25.80;23.80;;;;;;;22.01;22.66;96720.06;6216486;28;109130;-56
2024/01/22 04:28:08;;;;;;;21.60;19.87;;;;;;;22.01;22.91;96717.41;6220058;28;110177;-57
2024/01/22 04:31:11;;;;;;;20.00;18.20;;;;;;;22.07;23.00;96720.88;6235076;28;111351;-56
2024/01/22 04:34:14;;;;;;;19.37;17.80;;;;;;;22.07;23.31;96716.34;6210844;28;110181;-57
2024/01/22 04:37:17;;;;;;;20.23;18.60;;;;;;;22.02;23.53;96713.69;6234612;27;109434;-56
2024/01/22 04:40:21;;;;;;;20.80;19.00;;;;;;;21.96;23.75;96717.38;6231143;27;110621;-56
2024/01/22 04:43:25;;;;;;;18.93;17.33;;;;;;;21.85;24.14;96718.44;6223860;28;109223;-58
2024/01/22 04:46:28;;;;;;;19.40;17.70;;;;;;;21.80;24.32;96715.72;6223077;27;109909;-59
2024/01/22 04:49:31;;;;;;;18.20;16.67;;;;;;;21.77;24.64;96716.25;6233371;28;110134;-58
2024/01/22 04:52:34;;;;;;;17.87;16.27;;;;;;;21.79;24.17;96714.91;6209084;27;110317;-57
2024/01/22 04:55:37;;;;;;;16.60;15.10;;;;;;;21.85;24.40;96725.63;6212241;28;109142;-58
2024/01/22 04:58:42;;;;;;;14.80;13.50;;;;;;;21.83;24.28;96725.88;6207506;27;110210;-58
2024/01/22 05:01:45;;;;;;;14.90;13.40;;;;;;;21.82;24.13;96721.59;6234837;27;109309;-58
2024/01/22 05:04:48;;;;;;;14.40;13.20;;;;;;;21.78;24.29;96725.84;6234858;27;110835;-58
2024/01/22 05:07:51;;;;;;;13.20;12.10;;;;;;;21.81;24.64;96730.63;6210367;28;109812;-59
2024/01/22 05:10:54;;;;;;;13.23;12.13;;;;;;;21.88;24.55;96717.09;6227959;28;110133;-57
2024/01/22 05:13:59;;;;;;;13.60;12.30;;;;;;;21.86;25.03;96720.03;6233286;27;109183;-56
2024/01/22 05:17:02;;;;;;;13.87;12.47;;;;;;;21.75;25.45;96726.34;6240765;27;109749;-61
2024/01/22 05:20:06;;;;;;;13.47;11.60;;;;;;;21.57;24.84;96724.97;6227290;27;109657;-61
2024/01/22 05:23:10;;;;;;;13.33;12.13;;;;;;;21.39;25.17;96726.22;6238869;27;109121;-60
2024/01/22 05:26:13;;;;;;;12.70;11.40;;;;;;;21.31;25.80;96728.56;6238905;27;108983;-61
2024/01/22 05:29:17;;;;;;;12.70;11.50;;;;;;;21.27;25.43;96730.16;6238902;28;110139;-61
2024/01/22 05:32:20;;;;;;;12.90;11.70;;;;;;;21.27;25.63;96730.97;6228254;27;109666;-62
2024/01/22 05:35:23;;;;;;;329.80;302.00;;;;;;;21.23;25.82;96735.19;6238988;28;110394;-61
2024/01/22 05:38:26;;;;;;;363.23;332.77;;;;;;;21.17;25.86;96729.06;6237741;27;109256;-61
2024/01/22 05:41:29;;;;;;;266.53;244.17;;;;;;;21.14;25.70;96731.41;6233738;27;109866;-62
2024/01/22 05:44:34;;;;;;;201.20;184.07;;;;;;;21.11;25.83;96729.28;6232571;27;110297;-61
2024/01/22 05:47:37;;;;;;;158.23;144.20;;;;;;;21.09;25.85;96731.38;6238098;27;110026;-61
2024/01/22 05:50:40;;;;;;;144.03;131.30;;;;;;;21.08;25.90;96727.13;6237913;27;109995;-61
2024/01/22 05:53:44;;;;;;;128.47;117.13;;;;;;;21.06;25.51;96727.38;6227008;27;108989;-61
2024/01/22 05:56:47;;;;;;;118.10;107.50;;;;;;;21.04;25.60;96720.69;6237892;27;109321;-61
2024/01/22 05:59:52;;;;;;;102.30;93.80;;;;;;;21.03;25.79;96727.88;6237286;27;111582;-61
2024/01/22 06:02:56;;;;;;;93.40;85.10;;;;;;;21.02;25.57;96725.47;6237926;27;108992;-61
2024/01/22 06:05:59;;;;;;;87.90;80.13;;;;;;;20.97;25.54;96728.88;6227945;27;110072;-61
2024/01/22 06:09:02;;;;;;;76.10;69.17;;;;;;;;;;6237757;27;109537;-61
2024/01/22 06:12:05;;;;;;;69.70;63.57;;;;;;;20.96;25.33;96734.47;6238262;27;109179;-61
2024/01/22 06:15:10;;;;;;;66.33;60.40;;;;;;;20.92;25.49;96732.31;6238079;27;110086;-61
2024/01/22 06:18:14;;;;;;;61.70;56.27;;;;;;;20.91;25.53;96741.38;6227590;28;110178;-61
2024/01/22 06:21:17;;;;;;;55.90;50.87;;;;;;;20.90;25.50;96738.97;6238090;27;110358;-61
2024/01/22 06:24:20;;;;;;;53.70;48.90;;;;;;;20.87;25.68;96742.13;6237727;27;109115;-61
2024/01/22 06:27:23;;;;;;;49.40;44.87;;;;;;;20.86;25.37;96737.88;6230205;27;108949;-58
2024/01/22 06:30:28;;;;;;;42.90;38.90;;;;;;;20.89;25.24;96743.47;6234894;27;109006;-58
2024/01/22 06:33:31;;;;;;;43.27;39.37;;;;;;;20.87;25.17;96742.94;6238049;27;109992;-58
2024/01/22 06:36:34;;;;;;;40.10;36.50;;;;;;;20.97;24.91;96747.50;6237762;27;109097;-57
2024/01/22 06:39:37;;;;;;;36.80;33.40;;;;;;;20.99;24.90;96757.91;6226332;27;110144;-58
2024/01/22 06:42:41;;;;;;;34.30;31.20;;;;;;;20.99;24.84;96757.91;6237480;27;110096;-58
2024/01/22 06:45:45;;;;;;;31.63;28.80;;;;;;;21.00;24.75;96754.19;6237382;27;109248;-57
2024/01/22 06:48:49;;;;;;;29.77;26.93;;;;;;;20.97;25.30;96749.38;6237217;27;109988;-57
2024/01/22 06:51:52;;;;;;;29.47;26.87;;;;;;;20.96;25.41;96753.91;6227075;27;110027;-58
2024/01/22 06:54:56;;;;;;;27.73;25.13;;;;;;;;;;6237418;27;110430;-58
2024/01/22 06:57:59;;;;;;;26.17;23.50;;;;;;;;;;6236542;27;109022;-57
2024/01/22 07:01:05;;;;;;;25.63;23.33;;;;;;;20.92;25.21;96747.50;6232027;27;109449;-58
2024/01/22 07:04:08;;;;;;;24.67;22.30;;;;;;;20.93;25.12;96755.22;6231118;27;109137;-58
2024/01/22 07:07:13;;;;;;;24.93;22.63;;;;;;;20.93;25.26;96762.41;6237416;27;110077;-58
2024/01/22 07:10:16;;;;;;;24.17;21.87;;;;;;;20.89;25.85;96762.13;6236777;27;110302;-58
2024/01/22 07:13:19;;;;;;;24.07;21.80;;;;;;;20.86;25.55;96761.81;6226336;28;109524;-59
2024/01/22 07:16:24;;;;;;;23.17;20.97;;;;;;;20.83;25.23;96764.97;6236929;27;109221;-58
2024/01/22 07:19:27;;;;;;;23.93;21.43;;;;;;;20.81;25.46;96767.09;6236673;27;109899;-58
2024/01/22 07:22:31;;;;;;;22.77;20.63;;;;;;;20.81;25.62;96767.09;6236367;27;109038;-58
2024/01/22 07:25:36;;;;;;;22.53;20.43;;;;;;;20.79;25.35;96769.22;6226180;27;109726;-58
2024/01/22 07:28:39;;;;;;;23.50;21.30;;;;;;;20.80;25.40;96770.81;6236567;27;110317;-58
2024/01/22 07:31:44;;;;;;;22.90;20.67;;;;;;;20.80;25.26;96771.59;6236534;27;109077;-59
2024/01/22 07:34:47;;;;;;;22.70;20.60;;;;;;;20.80;25.19;96763.63;6235434;27;109104;-62
2024/01/22 07:37:51;;;;;;;22.50;20.20;;;;;;;20.77;25.30;96772.13;6226614;27;109072;-61
2024/01/22 07:40:54;;;;;;;22.63;20.53;;;;;;;20.78;25.19;96756.97;6236683;27;109102;-62
2024/01/22 07:43:58;;;;;;;20.90;18.97;;;;;;;20.77;25.19;96753.50;6236697;27;109295;-60
2024/01/22 07:47:02;;;;;;;21.80;19.67;;;;;;;20.75;25.05;96758.28;6226593;27;109089;-60
2024/01/22 07:50:10;;;;;;;21.57;19.47;;;;;;;20.74;25.26;96754.00;6235357;27;109076;-60
2024/01/22 07:53:13;;;;;;;20.97;19.07;;;;;;;20.74;25.18;96748.69;6236519;27;110161;-61
2024/01/22 07:56:17;;;;;;;21.13;19.03;;;;;;;20.74;25.16;96739.91;6236708;27;109401;-61
2024/01/22 07:59:20;;;;;;;20.67;18.67;;;;;;;20.73;25.17;96743.63;6225290;27;109311;-61
2024/01/22 08:02:24;;;;;;;20.10;18.30;;;;;;;20.71;25.24;96743.88;6236011;27;109064;-61
2024/01/22 08:05:28;;;;;;;20.57;18.67;;;;;;;20.72;24.90;96750.81;6235817;27;109070;-61
2024/01/22 08:08:31;;;;;;;20.77;18.80;;;;;;;20.72;24.99;96748.16;6236196;28;110072;-61
2024/01/22 08:11:34;;;;;;;21.03;18.93;;;;;;;20.71;25.08;96743.88;6224617;27;108842;-60
2024/01/22 08:14:37;;;;;;;19.43;17.63;;;;;;;20.68;25.06;96725.78;6236135;27;110515;-60
2024/01/22 08:17:43;;;;;;;19.93;18.03;;;;;;;20.72;24.65;96726.88;6235751;27;108929;-61
2024/01/22 08:20:46;;;;;;;19.53;17.63;;;;;;;20.72;24.99;96726.88;6229797;27;109628;-61
2024/01/22 08:23:49;;;;;;;20.10;18.10;;;;;;;20.73;24.61;96717.03;6230507;27;110590;-61
2024/01/22 08:26:52;;;;;;;19.87;18.00;;;;;;;20.74;24.69;96713.31;6235504;27;108741;-61
2024/01/22 08:29:56;;;;;;;19.50;17.57;;;;;;;20.85;24.42;96705.16;6235463;27;109950;-60
2024/01/22 08:33:00;;;;;;;18.77;16.97;;;;;;;21.47;24.02;96700.94;6224535;27;109162;-61
2024/01/22 08:36:04;;;;;;;19.30;17.30;;;;;;;21.72;23.58;96705.56;6235580;28;109994;-61
2024/01/22 08:39:09;;;;;;;19.40;17.50;;;;;;;21.68;23.65;96707.16;6235376;27;108935;-61
2024/01/22 08:42:12;;;;;;;19.17;17.23;;;;;;;21.75;23.39;96710.38;6235675;27;110975;-61
2024/01/22 08:45:15;;;;;;;18.50;16.70;;;;;;;21.79;22.74;96714.09;6224112;27;110022;-61
2024/01/22 08:48:20;;;;;;;18.47;16.57;;;;;;;21.81;23.27;96727.97;6235290;27;108999;-59
2024/01/22 08:51:23;;;;;;;18.60;16.73;;;;;;;21.80;23.16;96737.03;6234312;27;109001;-57
2024/01/22 08:54:27;;;;;;;19.23;17.23;;;;;;;21.81;23.28;96734.09;6231552;27;109200;-59
2024/01/22 08:57:31;;;;;;;19.63;17.73;;;;;;;21.83;22.68;96723.19;6228884;27;109004;-58
2024/01/22 09:00:35;;;;;;;18.87;16.97;;;;;;;21.83;23.16;96725.06;6235775;27;109145;-58
2024/01/22 09:03:40;;;;;;;20.23;18.07;;;;;;;21.80;23.13;96727.16;6234979;27;110189;-58
2024/01/22 09:06:43;;;;;;;19.43;17.43;;;;;;;21.84;22.70;96724.00;6224341;27;109348;-58
2024/01/22 09:09:46;;;;;;;19.27;17.37;;;;;;;21.84;22.61;96738.13;6233974;27;109003;-58
2024/01/22 09:12:49;;;;;;;16.77;15.17;;;;;;;21.85;22.58;96734.44;6234400;27;109129;-57
2024/01/22 09:15:52;;;;;;;17.77;16.00;;;;;;;21.88;22.57;96725.91;6234816;27;110293;-57
2024/01/22 09:18:57;;;;;;;19.33;17.43;;;;;;;21.86;22.88;96730.69;6223573;28;110209;-57
2024/01/22 09:22:00;;;;;;;18.57;16.73;;;;;;;21.87;22.86;96726.16;6234851;28;110151;-58
2024/01/22 09:25:05;;;;;;;18.97;17.07;;;;;;;21.85;22.56;96713.09;6234637;27;110239;-58
2024/01/22 09:28:08;;;;;;;17.97;16.20;;;;;;;21.86;22.63;96709.38;6235134;27;110088;-57
2024/01/22 09:31:11;;;;;;;18.87;17.00;;;;;;;21.86;22.90;96705.91;6223688;27;109679;-57
2024/01/22 09:34:15;;;;;;;18.00;16.37;;;;;;;21.87;22.55;96708.31;6234583;27;110201;-58
2024/01/22 09:37:19;;;;;;;18.20;16.40;;;;;;;21.93;22.70;96704.59;6234722;28;108944;-58
2024/01/22 09:40:24;;;;;;;18.20;16.40;;;;;;;21.93;22.52;96715.25;6228730;27;109046;-58
2024/01/22 09:43:32;;;;;;;17.63;15.83;;;;;;;21.96;22.46;96711.25;6232142;27;108987;-58
2024/01/22 09:46:36;;;;;;;19.03;17.23;;;;;;;21.97;22.33;96712.84;6234200;27;109138;-58
2024/01/22 09:49:40;;;;;;;18.00;16.10;;;;;;;22.02;22.66;96700.34;6234160;27;109189;-58
2024/01/22 09:52:45;;;;;;;18.17;16.37;;;;;;;22.02;22.61;96700.34;6223101;27;109026;-58
2024/01/22 09:55:51;;;;;;;18.57;16.63;;;;;;;22.04;22.36;96705.41;6234120;27;109232;-60
2024/01/22 09:59:01;;;;;;;18.63;16.73;;;;;;;22.03;22.51;96701.94;6233910;27;110371;-59
2024/01/22 10:02:05;;;;;;;17.60;15.80;;;;;;;22.02;22.40;96687.03;6236190;27;109355;-59
2024/01/22 10:05:10;;;;;;;17.43;15.73;;;;;;;22.02;22.29;96684.34;6227326;27;109067;-59
2024/01/22 10:08:13;;;;;;;19.10;17.23;;;;;;;22.06;22.35;96685.41;6238773;28;110046;-60
2024/01/22 10:11:16;;;;;;;18.00;16.37;;;;;;;22.13;22.37;96679.81;6238229;28;109118;-59
2024/01/22 10:14:29;;;;;;;17.83;16.10;;;;;;;22.19;22.73;96680.63;6233364;27;110196;-60
2024/01/22 10:17:33;;;;;;;19.53;17.53;;;;;;;22.23;22.34;96676.38;6233787;27;108999;-59
2024/01/22 10:20:39;;;;;;;19.20;17.30;;;;;;;22.25;22.70;96667.03;6238006;27;108826;-60
2024/01/22 10:23:44;;;;;;;18.90;17.10;;;;;;;22.31;22.76;96663.28;6238046;27;109038;-60
2024/01/22 10:26:47;;;;;;;18.47;16.67;;;;;;;22.32;22.17;96664.09;6226871;27;110052;-60
2024/01/22 10:29:50;;;;;;;18.37;16.53;;;;;;;22.32;22.30;96664.09;6237627;27;109119;-60
2024/01/22 10:33:09;;;;;;;17.83;16.17;;;;;;;22.37;22.29;96664.09;6237638;27;109197;-60
2024/01/22 10:36:19;;;;;;;19.33;17.43;;;;;;;22.43;22.28;96660.34;6237683;27;109857;-58
2024/01/22 10:39:22;;;;;;;18.57;16.77;;;;;;;22.44;22.59;96659.28;6226328;27;111414;-60
2024/01/22 10:42:27;;;;;;;19.67;17.60;;;;;;;22.36;22.82;96649.97;6237441;27;109090;-60
2024/01/22 10:45:32;;;;;;;20.40;18.40;;;;;;;22.34;22.68;96649.41;6237469;27;109065;-61
2024/01/22 10:48:36;;;;;;;18.33;16.43;;;;;;;22.37;22.74;96651.56;6232059;27;108981;-61
2024/01/22 10:51:51;;;;;;;18.40;16.60;;;;;;;22.33;22.89;96642.47;6236348;27;109191;-60
2024/01/22 10:54:55;;;;;;;19.07;17.17;;;;;;;22.31;22.93;96641.16;6237153;27;109161;-60
2024/01/22 10:58:00;;;;;;;19.23;17.33;;;;;;;22.32;22.54;96624.88;6237394;27;109372;-61
2024/01/22 11:01:06;;;;;;;19.87;17.97;;;;;;;22.31;22.27;96625.94;6226344;27;109153;-61
2024/01/22 11:04:11;;;;;;;20.37;18.37;;;;;;;22.30;22.50;96623.56;6237605;27;110880;-61
2024/01/22 11:07:18;;;;;;;19.40;17.40;;;;;;;22.29;22.83;96628.09;6237247;27;109235;-60
2024/01/22 11:10:23;;;;;;;19.97;17.93;;;;;;;22.27;22.71;96616.88;6237014;27;109249;-61
2024/01/22 11:13:28;;;;;;;20.30;18.10;;;;;;;22.24;22.94;96622.75;6226330;27;109592;-61
2024/01/22 11:16:33;;;;;;;20.87;18.77;;;;;;;22.23;22.61;96613.16;6237162;28;110053;-61
2024/01/22 11:19:36;;;;;;;21.90;19.60;;;;;;;22.21;22.98;96617.16;6236712;27;109178;-60
2024/01/22 11:22:41;;;;;;;19.47;17.47;;;;;;;22.22;22.75;96614.22;6231150;27;109252;-61
2024/01/22 11:25:45;;;;;;;21.73;19.53;;;;;;;22.26;22.80;96609.16;6232340;27;109193;-61
2024/01/22 11:29:07;;;;;;;20.33;18.37;;;;;;;22.26;22.83;96611.81;6228350;27;109132;-61
2024/01/22 11:32:26;;;;;;;20.67;18.50;;;;;;;22.26;22.46;96606.50;6233996;28;109008;-61
2024/01/22 11:35:36;;;;;;;21.53;19.33;;;;;;;22.24;22.79;96596.09;6225995;27;109133;-61
2024/01/22 11:38:53;;;;;;;21.90;19.70;;;;;;;22.26;22.63;96598.50;6236702;27;109314;-60
2024/01/22 11:41:56;;;;;;;20.80;18.70;;;;;;;22.23;22.66;96596.38;6236236;27;109073;-59
2024/01/22 11:45:12;;;;;;;22.00;19.80;;;;;;;22.25;22.29;96591.56;6231385;27;109184;-59
2024/01/22 11:48:17;;;;;;;22.47;20.07;;;;;;;22.22;22.50;96595.56;6230818;27;110275;-60
2024/01/22 11:51:26;;;;;;;22.20;19.90;;;;;;;22.19;22.88;96588.09;6235593;27;109078;-59
2024/01/22 11:54:31;;;;;;;21.10;18.90;;;;;;;22.22;22.46;96594.78;6236629;27;110080;-59
2024/01/22 11:57:39;;;;;;;20.80;18.63;;;;;;;22.23;22.23;96589.16;6225552;27;109230;-60
2024/01/22 12:00:45;;;;;;;22.50;20.20;;;;;;;22.21;22.38;96582.50;6236018;27;109038;-60
2024/01/22 12:03:48;;;;;;;23.77;21.37;;;;;;;22.21;22.60;96582.50;6236438;27;110163;-60
2024/01/22 12:06:52;;;;;;;21.60;19.30;;;;;;;22.23;22.51;96586.50;6236003;27;108998;-60
2024/01/22 12:09:56;;;;;;;23.70;21.30;;;;;;;22.21;22.34;96577.97;6226352;27;109187;-60
2024/01/22 12:13:03;;;;;;;23.00;20.73;;;;;;;22.20;22.76;96575.56;6235915;27;110146;-60
2024/01/22 12:16:13;;;;;;;22.43;20.10;;;;;;;22.21;22.86;96555.84;6236335;27;109998;-59
2024/01/22 12:19:16;;;;;;;22.03;19.73;;;;;;;22.20;22.50;96554.25;6231120;27;110078;-59
2024/01/22 12:22:20;;;;;;;22.13;19.83;;;;;;;22.18;22.95;96551.84;6229866;27;109042;-59
2024/01/22 12:25:33;;;;;;;23.00;20.53;;;;;;;22.16;23.05;96555.81;6235217;27;111105;-59
2024/01/22 12:28:37;;;;;;;23.17;20.87;;;;;;;22.27;23.03;96547.56;6235715;27;109288;-57
2024/01/22 12:31:40;;;;;;;23.40;20.70;;;;;;;22.33;22.71;96546.47;6224885;27;109190;-60
2024/01/22 12:34:43;;;;;;;22.47;20.27;;;;;;;22.28;23.09;96538.47;6235547;27;109054;-59
2024/01/22 12:37:48;;;;;;;24.87;20.90;;;;;;;22.22;23.27;96531.56;6235754;27;110579;-59
2024/01/22 12:41:00;;;;;;;22.53;20.23;;;;;;;22.18;23.07;96524.34;6235522;27;110018;-58
2024/01/22 12:44:03;;;;;;;23.30;20.80;;;;;;;22.20;22.70;96522.25;6224234;27;109102;-58
2024/01/22 12:47:06;;;;;;;23.67;21.27;;;;;;;22.15;23.08;96530.22;6235364;27;109772;-58
2024/01/22 12:50:11;;;;;;;23.13;20.83;;;;;;;22.15;22.72;96536.38;6235273;27;109104;-58
2024/01/22 12:53:15;;;;;;;24.33;21.73;;;;;;;22.16;23.14;96521.16;6230393;27;109107;-58
2024/01/22 12:56:20;;;;;;;24.53;21.93;;;;;;;22.15;22.58;96516.91;6229623;27;110028;-58
2024/01/22 12:59:23;;;;;;;25.30;22.70;;;;;;;22.13;22.66;96519.03;6234508;27;109049;-59
2024/01/22 13:02:26;;;;;;;22.93;20.57;;;;;;;22.17;22.38;96514.75;6235027;27;110155;-58
2024/01/22 13:05:29;;;;;;;24.07;21.47;;;;;;;22.16;22.53;96515.84;6224521;28;111532;-59
2024/01/22 13:08:36;;;;;;;24.47;21.90;;;;;;;22.17;22.50;96506.78;6234749;27;109001;-58
2024/01/22 13:11:42;;;;;;;23.30;20.90;;;;;;;22.14;22.69;96510.78;6234696;27;110805;-59
2024/01/22 13:14:45;;;;;;;23.27;20.87;;;;;;;22.15;22.36;96499.03;6235097;28;110182;-58
2024/01/22 13:17:50;;;;;;;24.87;22.33;;;;;;;22.16;22.69;96494.50;6223220;27;109123;-58
2024/01/22 13:20:53;;;;;;;24.80;22.30;;;;;;;22.14;22.78;96485.97;6234410;27;109145;-58
2024/01/22 13:23:56;;;;;;;24.47;21.90;;;;;;;22.11;22.32;96488.13;6234703;27;109142;-58
2024/01/22 13:27:02;;;;;;;24.60;21.97;;;;;;;22.10;22.59;96486.53;6234939;27;108906;-58
2024/01/22 13:30:07;;;;;;;25.77;23.10;;;;;;;22.13;22.89;96489.72;6225248;27;110519;-58
2024/01/22 13:33:10;;;;;;;24.50;21.90;;;;;;;22.15;22.37;96488.38;6234485;27;110369;-58
2024/01/22 13:36:14;;;;;;;24.83;22.23;;;;;;;22.13;22.48;96487.06;6236511;27;109374;-58
2024/01/22 13:39:17;;;;;;;25.73;23.10;;;;;;;22.13;22.66;96497.72;6229761;27;109942;-59
2024/01/22 13:42:21;;;;;;;25.47;22.77;;;;;;;22.14;22.59;96486.78;6238823;27;109091;-58
2024/01/22 13:45:25;;;;;;;25.57;22.87;;;;;;;22.14;22.65;96496.66;6238592;27;109030;-58
2024/01/22 13:48:30;;;;;;;26.60;23.73;;;;;;;22.14;22.70;96499.31;6214209;28;109213;-58
2024/01/22 13:51:34;;;;;;;26.00;23.40;;;;;;;22.10;22.39;96507.84;6219474;28;108990;-58
2024/01/22 13:54:37;;;;;;;26.88;24.17;;;;;;;22.13;22.82;96503.06;6237185;27;109300;-59
2024/01/22 13:57:42;;;;;;;26.85;24.15;;;;;;;22.12;22.29;96504.91;6236719;27;110180;-58
2024/01/22 14:00:45;;;;;;;26.93;24.23;;;;;;;22.10;22.43;96497.19;6237313;27;110204;-59